Time;durP1;ratioP1;P1;durP2;ratioP2;P2;SDS_P1;SDS_P2;PMS_P1;PMS_P2;Temp;Humidity;BMP_temperature;BMP_pressure;BME280_temperature;BME280_humidity;BME280_pressure;Samples;Min_cycle;Max_cycle;Signal;HPM_P1;HPM_P2
2022/01/26 00:00:03;;;;;;;17.97;16.87;;;;;;;;;;5092260;28;20236;-76
2022/01/26 00:07:59;;;;;;;18.33;17.23;;;;;;;;;;5092577;28;20718;-76
2022/01/26 00:10:26;;;;;;;18.30;17.10;;;;;;;;;;5092330;28;20258;-76
2022/01/26 00:12:53;;;;;;;18.60;17.40;;;;;;;;;;5093166;28;20296;-75
2022/01/26 00:15:19;;;;;;;19.77;18.57;;;;;;;;;;5092277;28;20576;-76
2022/01/26 00:17:46;;;;;;;18.27;17.17;;;;;;;;;;5092034;28;20233;-76
2022/01/26 00:20:19;;;;;;;19.33;18.13;;;;;;;;;;5091967;28;20253;-75
2022/01/26 00:23:01;;;;;;;19.97;18.67;;;;;;;;;;5091986;28;20186;-76
2022/01/26 00:25:46;;;;;;;20.73;19.43;;;;;;;;;;5092310;28;20181;-75
2022/01/26 00:39:23;;;;;;;18.90;17.70;;;;;;;;;;5069066;28;20205;-76
2022/01/26 00:41:55;;;;;;;19.03;17.83;;;;;;;;;;5096112;28;20628;-76
2022/01/26 00:44:22;;;;;;;19.23;18.03;;;;;;;;;;5096090;28;20186;-76
2022/01/26 00:46:49;;;;;;;19.30;18.10;;;;;;;;;;5095671;28;20668;-77
2022/01/26 00:49:20;;;;;;;18.00;16.90;;;;;;;;;;5096143;28;20572;-76
2022/01/26 00:51:47;;;;;;;18.07;16.97;;;;;;;;;;5095938;28;20277;-76
2022/01/26 00:54:14;;;;;;;17.40;16.30;;;;;;;;;;5095685;28;20664;-76
2022/01/26 00:56:40;;;;;;;20.13;18.53;;;;;;;;;;5095807;28;20198;-76
2022/01/26 00:59:10;;;;;;;19.50;18.50;;;;;;;;;;5095838;28;20287;-75
2022/01/26 01:01:37;;;;;;;19.53;18.53;;;;;;;;;;5095776;28;20194;-75
2022/01/26 01:04:04;;;;;;;23.23;21.77;;;;;;;;;;5095586;28;20740;-76
2022/01/26 01:06:37;;;;;;;21.80;20.60;;;;;;;;;;5095883;28;20215;-76
2022/01/26 01:09:04;;;;;;;19.93;18.93;;;;;;;;;;5095643;28;20182;-76
2022/01/26 01:11:31;;;;;;;20.43;19.43;;;;;;;;;;5095227;28;20202;-76
2022/01/26 01:13:58;;;;;;;20.97;19.97;;;;;;;;;;5095472;28;20628;-76
2022/01/26 01:16:26;;;;;;;23.67;21.90;;;;;;;;;;5095207;28;20198;-76
2022/01/26 01:18:59;;;;;;;20.73;19.73;;;;;;;;;;5095125;28;20194;-76
2022/01/26 01:24:47;;;;;;;20.37;19.37;;;;;;;;;;5095427;28;20188;-76
2022/01/26 01:27:40;;;;;;;19.97;18.97;;;;;;;;;;5094815;28;20193;-76
2022/01/26 01:30:20;;;;;;;20.97;19.87;;;;;;;;;;5094953;28;20190;-76
2022/01/26 01:32:54;;;;;;;22.77;21.17;;;;;;;;;;5095384;28;20190;-76
2022/01/26 01:35:21;;;;;;;25.70;19.77;;;;;;;;;;5094751;28;20224;-76
2022/01/26 01:37:48;;;;;;;23.63;22.43;;;;;;;;;;5094051;28;20680;-76
2022/01/26 01:40:15;;;;;;;21.13;20.03;;;;;;;;;;5095046;28;20255;-75
2022/01/26 01:42:41;;;;;;;20.20;19.20;;;;;;;;;;5094731;28;20215;-76
2022/01/26 01:45:09;;;;;;;21.73;20.63;;;;;;;;;;5094860;28;20205;-76
2022/01/26 01:47:35;;;;;;;21.60;20.50;;;;;;;;;;5094937;28;20273;-75
2022/01/26 01:50:08;;;;;;;22.53;21.33;;;;;;;;;;5094771;28;20613;-75
2022/01/26 01:52:35;;;;;;;20.57;19.47;;;;;;;;;;5095306;28;20186;-76
2022/01/26 01:55:04;;;;;;;20.93;19.73;;;;;;;;;;5094310;28;20287;-76
2022/01/26 01:57:31;;;;;;;20.73;19.43;;;;;;;;;;5094651;28;20223;-76
2022/01/26 01:59:57;;;;;;;21.77;20.47;;;;;;;;;;5094038;28;20649;-76
2022/01/26 02:02:24;;;;;;;22.27;21.07;;;;;;;;;;5095055;28;20289;-76
2022/01/26 02:04:51;;;;;;;24.13;22.83;;;;;;;;;;5094191;28;20664;-76
2022/01/26 02:07:19;;;;;;;23.67;22.47;;;;;;;;;;5094440;28;20222;-76
2022/01/26 02:09:46;;;;;;;25.50;24.10;;;;;;;;;;5094168;28;20200;-76
2022/01/26 02:12:13;;;;;;;24.43;23.13;;;;;;;;;;5094051;28;20670;-76
2022/01/26 02:14:44;;;;;;;23.87;22.47;;;;;;;;;;5093981;28;20225;-76
2022/01/26 02:17:20;;;;;;;23.40;22.10;;;;;;;;;;5094090;28;20190;-76
2022/01/26 02:50:24;;;;;;;21.57;20.30;;;;;;;;;;5093178;28;20189;-76
2022/01/26 02:53:01;;;;;;;20.27;18.97;;;;;;;;;;5093545;28;20194;-76
2022/01/26 02:55:37;;;;;;;20.47;19.17;;;;;;;;;;5093491;28;20225;-76
2022/01/26 03:01:02;;;;;;;20.07;18.77;;;;;;;;;;5058721;28;20221;-76
2022/01/26 03:03:33;;;;;;;20.27;18.97;;;;;;;;;;5093102;28;20189;-75
2022/01/26 03:06:04;;;;;;;20.93;19.63;;;;;;;;;;5093079;28;20190;-76
2022/01/26 03:08:34;;;;;;;19.77;18.47;;;;;;;;;;5093267;28;20269;-75
2022/01/26 03:11:07;;;;;;;21.03;19.50;;;;;;;;;;5093283;28;20189;-75
2022/01/26 03:13:36;;;;;;;21.73;20.33;;;;;;;;;;5092910;28;20677;-75
2022/01/26 03:16:09;;;;;;;23.20;21.60;;;;;;;;;;5093089;28;20225;-75
2022/01/26 03:18:52;;;;;;;21.20;19.80;;;;;;;;;;5093373;28;20193;-75
2022/01/26 03:21:25;;;;;;;23.03;21.73;;;;;;;;;;5093107;28;20190;-75
2022/01/26 03:29:40;;;;;;;21.43;20.03;;;;;;;;;;5093557;28;20190;-76
2022/01/26 03:34:56;;;;;;;23.57;21.77;;;;;;;;;;5058626;28;20271;-75
2022/01/26 03:37:28;;;;;;;19.87;18.67;;;;;;;;;;5092819;28;20194;-75
2022/01/26 03:39:55;;;;;;;21.10;19.80;;;;;;;;;;5092499;28;20221;-76
2022/01/26 03:42:23;;;;;;;22.53;20.93;;;;;;;;;;5092464;28;20660;-75
2022/01/26 03:44:50;;;;;;;21.30;20.00;;;;;;;;;;5092707;28;20198;-75
2022/01/26 03:47:17;;;;;;;22.53;21.23;;;;;;;;;;5092277;28;20198;-75
2022/01/26 03:49:43;;;;;;;20.93;19.67;;;;;;;;;;5092330;28;20193;-75
2022/01/26 03:52:11;;;;;;;20.27;18.97;;;;;;;;;;5092249;28;20202;-75
2022/01/26 03:54:38;;;;;;;23.07;21.47;;;;;;;;;;5092553;28;20201;-75
2022/01/26 03:57:05;;;;;;;23.90;22.40;;;;;;;;;;5092539;28;20197;-75
2022/01/26 03:59:33;;;;;;;23.43;22.03;;;;;;;;;;5092098;28;20225;-75
2022/01/26 04:02:00;;;;;;;22.83;20.57;;;;;;;;;;5092190;28;20233;-75
2022/01/26 04:04:29;;;;;;;20.70;19.40;;;;;;;;;;5092463;28;20198;-75
2022/01/26 04:06:59;;;;;;;23.03;20.63;;;;;;;;;;5092430;28;20197;-75
2022/01/26 04:09:25;;;;;;;21.10;19.70;;;;;;;;;;5092392;28;20196;-76
2022/01/26 04:11:52;;;;;;;24.50;22.90;;;;;;;;;;5092433;28;20621;-75
2022/01/26 04:14:23;;;;;;;25.03;23.43;;;;;;;;;;5092436;28;20221;-75
2022/01/26 04:16:51;;;;;;;24.67;23.03;;;;;;;;;;5091991;28;20686;-75
2022/01/26 04:19:19;;;;;;;37.57;21.50;;;;;;;;;;5092294;28;20198;-75
2022/01/26 04:21:59;;;;;;;25.57;24.03;;;;;;;;;;5092258;28;20194;-75
2022/01/26 04:24:31;;;;;;;24.40;22.97;;;;;;;;;;5092004;28;20585;-75
2022/01/26 04:27:02;;;;;;;25.40;23.67;;;;;;;;;;5091957;28;20746;-75
2022/01/26 04:29:31;;;;;;;21.67;20.33;;;;;;;;;;5092272;28;20251;-75
2022/01/26 04:31:59;;;;;;;21.20;19.90;;;;;;;;;;5091897;28;20198;-75
2022/01/26 04:34:28;;;;;;;19.83;18.73;;;;;;;;;;5091874;28;20197;-75
2022/01/26 04:36:59;;;;;;;22.37;21.27;;;;;;;;;;5091907;28;20278;-75
2022/01/26 04:39:31;;;;;;;25.33;23.50;;;;;;;;;;5091900;28;20186;-75
2022/01/26 04:42:01;;;;;;;25.00;23.03;;;;;;;;;;5092126;28;20186;-75
2022/01/26 04:44:33;;;;;;;24.63;22.60;;;;;;;;;;5092158;28;20194;-75
2022/01/26 04:47:01;;;;;;;25.37;23.37;;;;;;;;;;5091762;28;20197;-75
2022/01/26 04:49:28;;;;;;;25.33;22.83;;;;;;;;;;5091733;28;20292;-75
2022/01/26 04:51:55;;;;;;;23.77;22.30;;;;;;;;;;5091713;28;20623;-75
2022/01/26 04:54:21;;;;;;;26.10;24.17;;;;;;;;;;5092007;28;20243;-74
2022/01/26 04:56:48;;;;;;;22.23;20.93;;;;;;;;;;5091602;28;20240;-75
2022/01/26 04:59:15;;;;;;;22.50;21.03;;;;;;;;;;5091829;28;20237;-75
2022/01/26 05:01:42;;;;;;;24.53;22.73;;;;;;;;;;5091959;28;20239;-75
2022/01/26 05:04:10;;;;;;;27.43;25.60;;;;;;;;;;5091614;28;20637;-75
2022/01/26 05:06:36;;;;;;;23.30;21.90;;;;;;;;;;5091564;28;20193;-75
2022/01/26 05:09:03;;;;;;;23.83;22.10;;;;;;;;;;5091854;28;20270;-74
2022/01/26 05:11:35;;;;;;;24.33;22.70;;;;;;;;;;5091472;28;20205;-75
2022/01/26 05:14:01;;;;;;;24.83;23.07;;;;;;;;;;5093617;28;20284;-75
2022/01/26 05:16:29;;;;;;;23.93;22.43;;;;;;;;;;5095369;28;20240;-75
2022/01/26 05:18:56;;;;;;;20.70;19.50;;;;;;;;;;5095412;28;20280;-75
2022/01/26 05:21:25;;;;;;;23.13;21.73;;;;;;;;;;5095066;28;20194;-75
2022/01/26 05:23:52;;;;;;;24.90;23.20;;;;;;;;;;5095302;28;20251;-75
2022/01/26 05:26:18;;;;;;;26.37;23.97;;;;;;;;;;5095779;28;20281;-75
2022/01/26 05:28:45;;;;;;;22.53;21.33;;;;;;;;;;5095182;28;20225;-74
2022/01/26 05:31:12;;;;;;;28.50;26.90;;;;;;;;;;5094846;28;20229;-75
2022/01/26 05:33:39;;;;;;;28.07;26.43;;;;;;;;;;5094903;28;20194;-74
2022/01/26 05:36:06;;;;;;;27.17;25.47;;;;;;;;;;5094890;28;20225;-75
2022/01/26 05:38:34;;;;;;;22.17;20.87;;;;;;;;;;5094762;28;20660;-75
2022/01/26 05:41:02;;;;;;;21.43;20.23;;;;;;;;;;5094958;28;20229;-75
2022/01/26 05:43:29;;;;;;;25.23;23.93;;;;;;;;;;5094947;28;20197;-75
2022/01/26 05:45:59;;;;;;;27.83;25.57;;;;;;;;;;5094830;28;20229;-75
2022/01/26 05:48:26;;;;;;;25.20;22.03;;;;;;;;;;5094822;28;20189;-74
2022/01/26 05:50:55;;;;;;;22.47;21.17;;;;;;;;;;5094825;28;20277;-75
2022/01/26 05:53:22;;;;;;;26.57;24.60;;;;;;;;;;5094794;28;20194;-75
2022/01/26 05:55:53;;;;;;;27.30;25.47;;;;;;;;;;5094647;28;20265;-74
2022/01/26 05:58:20;;;;;;;28.33;26.63;;;;;;;;;;5094407;28;20185;-74
2022/01/26 06:00:46;;;;;;;26.33;24.43;;;;;;;;;;5094239;28;20268;-74
2022/01/26 06:03:13;;;;;;;24.47;23.17;;;;;;;;;;5094574;28;20198;-75
2022/01/26 06:05:40;;;;;;;28.17;26.43;;;;;;;;;;5094222;28;20251;-75
2022/01/26 06:08:06;;;;;;;24.00;22.60;;;;;;;;;;5094202;28;20255;-75
2022/01/26 06:10:33;;;;;;;27.90;25.87;;;;;;;;;;5094376;28;20221;-74
2022/01/26 06:13:01;;;;;;;26.97;24.80;;;;;;;;;;5094402;28;20221;-75
2022/01/26 06:15:28;;;;;;;24.47;23.07;;;;;;;;;;5094487;28;20281;-74
2022/01/26 06:17:55;;;;;;;26.87;24.87;;;;;;;;;;5094021;28;20223;-75
2022/01/26 06:20:22;;;;;;;23.93;22.47;;;;;;;;;;5094340;28;20197;-75
2022/01/26 06:22:48;;;;;;;24.27;22.87;;;;;;;;;;5094212;28;20225;-74
2022/01/26 06:25:15;;;;;;;24.43;22.83;;;;;;;;;;5093669;28;20609;-75
2022/01/26 06:27:43;;;;;;;24.10;22.50;;;;;;;;;;5093884;28;20205;-74
2022/01/26 06:30:12;;;;;;;26.93;24.77;;;;;;;;;;5093740;28;20198;-74
2022/01/26 06:32:39;;;;;;;24.93;23.23;;;;;;;;;;5093721;28;20201;-75
2022/01/26 06:35:07;;;;;;;26.90;24.83;;;;;;;;;;5093653;28;20695;-74
2022/01/26 06:37:34;;;;;;;25.33;23.40;;;;;;;;;;5093980;28;20241;-75
2022/01/26 06:40:01;;;;;;;26.80;24.33;;;;;;;;;;5094093;28;20197;-75
2022/01/26 06:42:33;;;;;;;28.20;26.00;;;;;;;;;;5093816;28;20202;-74
2022/01/26 06:45:12;;;;;;;25.23;23.53;;;;;;;;;;5093438;28;20190;-75
2022/01/26 06:47:54;;;;;;;28.13;25.93;;;;;;;;;;5093955;28;20197;-74
2022/01/26 06:50:21;;;;;;;25.23;23.57;;;;;;;;;;5093694;28;20189;-74
2022/01/26 06:52:48;;;;;;;26.63;24.60;;;;;;;;;;5093396;28;20571;-74
2022/01/26 06:55:15;;;;;;;23.73;22.33;;;;;;;;;;5093567;28;20275;-74
2022/01/26 06:57:42;;;;;;;23.90;22.30;;;;;;;;;;5093482;28;20283;-75
2022/01/26 07:00:10;;;;;;;27.43;25.27;;;;;;;;;;5093046;28;20296;-74
2022/01/26 07:02:37;;;;;;;25.93;24.07;;;;;;;;;;5093149;28;20713;-74
2022/01/26 07:05:05;;;;;;;24.47;22.73;;;;;;;;;;5093063;28;20285;-74
2022/01/26 07:07:32;;;;;;;23.30;21.47;;;;;;;;;;5093326;28;20205;-74
2022/01/26 07:09:59;;;;;;;24.23;22.73;;;;;;;;;;5093319;28;20281;-74
2022/01/26 07:12:26;;;;;;;25.23;23.00;;;;;;;;;;5093223;28;20253;-74
2022/01/26 07:23:06;;;;;;;24.53;22.60;;;;;;;;;;5093441;28;20232;-74
2022/01/26 07:25:33;;;;;;;26.80;24.37;;;;;;;;;;5092650;28;20196;-74
2022/01/26 07:28:02;;;;;;;27.07;24.67;;;;;;;;;;5093024;28;20251;-74
2022/01/26 07:30:29;;;;;;;27.37;25.47;;;;;;;;;;5092626;28;20229;-74
2022/01/26 07:32:56;;;;;;;27.00;24.67;;;;;;;;;;5092604;28;20190;-74
2022/01/26 07:35:24;;;;;;;27.17;25.33;;;;;;;;;;5092614;28;20189;-74
2022/01/26 07:37:53;;;;;;;23.03;21.47;;;;;;;;;;5093286;28;20234;-73
2022/01/26 07:40:20;;;;;;;25.87;23.63;;;;;;;;;;5092768;28;20548;-74
2022/01/26 07:42:47;;;;;;;27.40;24.47;;;;;;;;;;5092769;28;20255;-74
2022/01/26 07:45:13;;;;;;;27.13;25.03;;;;;;;;;;5092470;28;20194;-73
2022/01/26 07:47:40;;;;;;;27.17;24.17;;;;;;;;;;5092683;28;20281;-74
2022/01/26 07:50:09;;;;;;;24.03;22.23;;;;;;;;;;5092332;28;20284;-73
2022/01/26 07:52:39;;;;;;;22.17;20.70;;;;;;;;;;5092417;28;20196;-74
2022/01/26 07:55:07;;;;;;;20.50;18.90;;;;;;;;;;5092599;28;20188;-74
2022/01/26 07:57:33;;;;;;;24.37;21.13;;;;;;;;;;5092564;28;20229;-74
2022/01/26 08:00:00;;;;;;;17.77;16.67;;;;;;;;;;5092615;28;20225;-74
2022/01/26 08:02:27;;;;;;;20.30;19.20;;;;;;;;;;5092453;28;20246;-74
2022/01/26 08:04:53;;;;;;;21.90;20.13;;;;;;;;;;5092182;28;20194;-74
2022/01/26 08:07:20;;;;;;;22.80;21.30;;;;;;;;;;5092130;28;20237;-73
2022/01/26 08:09:48;;;;;;;26.77;24.50;;;;;;;;;;5092425;28;20194;-74
2022/01/26 08:12:16;;;;;;;24.60;22.80;;;;;;;;;;5092418;28;20194;-74
2022/01/26 08:14:42;;;;;;;28.43;23.33;;;;;;;;;;5092082;28;20197;-73
2022/01/26 08:17:09;;;;;;;23.87;22.00;;;;;;;;;;5092455;28;20286;-74
2022/01/26 08:19:36;;;;;;;21.87;20.70;;;;;;;;;;5091993;28;20664;-74
2022/01/26 08:22:04;;;;;;;30.63;28.30;;;;;;;;;;5092029;28;20247;-73
2022/01/26 08:24:32;;;;;;;25.57;23.70;;;;;;;;;;5092137;28;20219;-74
2022/01/26 08:27:06;;;;;;;25.10;23.27;;;;;;;;;;5092302;28;20781;-73
2022/01/26 08:29:39;;;;;;;23.20;22.00;;;;;;;;;;5092332;28;20212;-73
2022/01/26 08:32:06;;;;;;;23.90;22.60;;;;;;;;;;5092282;28;20273;-73
2022/01/26 08:34:33;;;;;;;27.53;25.73;;;;;;;;;;5092214;28;20284;-73
2022/01/26 08:37:00;;;;;;;24.60;22.67;;;;;;;;;;5092086;28;20267;-74
2022/01/26 08:39:26;;;;;;;24.77;23.10;;;;;;;;;;5092135;28;20225;-73
2022/01/26 08:41:53;;;;;;;23.07;20.97;;;;;;;;;;5092100;28;20650;-73
2022/01/26 08:44:21;;;;;;;22.33;20.83;;;;;;;;;;5091828;28;20684;-73
2022/01/26 08:46:48;;;;;;;28.93;26.47;;;;;;;;;;5091795;28;20255;-73
2022/01/26 08:49:15;;;;;;;26.13;23.67;;;;;;;;;;5094308;28;20284;-73
2022/01/26 08:51:42;;;;;;;24.37;22.67;;;;;;;;;;5095723;28;20194;-73
2022/01/26 08:54:10;;;;;;;25.23;23.27;;;;;;;;;;5095654;28;20233;-73
2022/01/26 08:56:37;;;;;;;28.03;25.37;;;;;;;;;;5095545;28;20217;-73
2022/01/26 08:59:04;;;;;;;26.47;23.97;;;;;;;;;;5095466;28;20321;-73
2022/01/26 09:01:32;;;;;;;27.93;25.27;;;;;;;;;;5095813;28;20198;-73
2022/01/26 09:03:59;;;;;;;23.77;21.97;;;;;;;;;;5095738;28;20251;-73
2022/01/26 09:06:26;;;;;;;25.53;23.70;;;;;;;;;;5095373;28;20233;-73
2022/01/26 09:09:00;;;;;;;25.23;23.13;;;;;;;;;;5095651;28;20247;-73
2022/01/26 09:11:27;;;;;;;26.50;23.83;;;;;;;;;;5095637;28;20212;-73
2022/01/26 09:13:57;;;;;;;26.63;24.13;;;;;;;;;;5095535;28;20193;-73
2022/01/26 09:16:25;;;;;;;26.90;24.53;;;;;;;;;;5095421;28;20182;-73
2022/01/26 09:18:57;;;;;;;28.20;25.83;;;;;;;;;;5095159;28;20198;-73
2022/01/26 09:21:24;;;;;;;25.90;24.00;;;;;;;;;;5095111;28;20615;-73
2022/01/26 09:23:51;;;;;;;26.73;24.57;;;;;;;;;;5095066;28;20198;-72
2022/01/26 09:26:19;;;;;;;22.07;20.30;;;;;;;;;;5095288;28;20672;-72
2022/01/26 09:28:46;;;;;;;24.63;22.40;;;;;;;;;;5095292;28;20232;-73
2022/01/26 09:31:12;;;;;;;23.70;22.00;;;;;;;;;;5095166;28;20204;-73
2022/01/26 09:33:39;;;;;;;24.70;22.87;;;;;;;;;;5095142;28;20232;-73
2022/01/26 09:36:08;;;;;;;21.27;19.67;;;;;;;;;;5095136;28;20228;-73
2022/01/26 09:38:35;;;;;;;21.43;19.70;;;;;;;;;;5094743;28;20225;-72
2022/01/26 09:41:01;;;;;;;25.00;22.70;;;;;;;;;;5095047;28;20202;-73
2022/01/26 09:43:29;;;;;;;26.03;23.03;;;;;;;;;;5094995;28;20198;-73
2022/01/26 09:45:56;;;;;;;20.93;19.50;;;;;;;;;;5094607;28;20198;-73
2022/01/26 09:48:22;;;;;;;24.00;22.30;;;;;;;;;;5095111;28;20249;-73
2022/01/26 09:50:54;;;;;;;22.77;21.07;;;;;;;;;;5094538;28;20197;-73
2022/01/26 09:53:27;;;;;;;20.63;19.17;;;;;;;;;;5094853;28;20569;-72
2022/01/26 09:55:54;;;;;;;23.27;21.40;;;;;;;;;;5094819;28;20186;-73
2022/01/26 09:58:21;;;;;;;23.13;21.50;;;;;;;;;;5094189;28;20612;-73
2022/01/26 10:00:56;;;;;;;27.20;22.43;;;;;;;;;;5093792;28;20229;-73
2022/01/26 10:03:25;;;;;;;25.97;23.30;;;;;;;;;;5094624;28;20221;-73
2022/01/26 10:05:52;;;;;;;25.67;23.17;;;;;;;;;;5094542;28;20251;-72
2022/01/26 10:08:39;;;;;;;21.90;20.40;;;;;;;;;;5094195;28;20216;-72
2022/01/26 10:17:18;;;;;;;21.57;20.10;;;;;;;;;;5094661;28;20230;-73
2022/01/26 10:19:37;;;;;;;27.27;20.03;;;;;;;;;;5093401;28;20609;-73
2022/01/26 10:22:04;;;;;;;20.33;19.03;;;;;;;;;;5093934;28;20664;-73
2022/01/26 10:24:33;;;;;;;27.30;24.77;;;;;;;;;;5094187;28;20198;-73
2022/01/26 10:27:01;;;;;;;20.60;19.43;;;;;;;;;;5094137;28;20225;-73
2022/01/26 10:29:29;;;;;;;19.33;18.03;;;;;;;;;;5094356;28;20189;-72
2022/01/26 10:31:56;;;;;;;25.60;23.40;;;;;;;;;;5093751;28;20230;-73
2022/01/26 10:34:23;;;;;;;23.70;21.80;;;;;;;;;;5093697;28;20201;-72
2022/01/26 10:36:51;;;;;;;23.10;21.13;;;;;;;;;;5093814;28;20194;-72
2022/01/26 10:39:22;;;;;;;23.60;21.63;;;;;;;;;;5093917;28;20229;-73
2022/01/26 10:41:51;;;;;;;23.50;21.37;;;;;;;;;;5093874;28;20239;-73
2022/01/26 10:44:26;;;;;;;19.47;18.23;;;;;;;;;;5093488;28;20285;-72
2022/01/26 10:46:52;;;;;;;24.13;22.13;;;;;;;;;;5093728;28;20565;-72
2022/01/26 10:49:31;;;;;;;23.10;21.60;;;;;;;;;;5093366;28;20671;-72
2022/01/26 10:52:03;;;;;;;23.77;22.00;;;;;;;;;;5093652;28;20189;-72
2022/01/26 10:54:37;;;;;;;23.40;21.50;;;;;;;;;;5093332;28;20221;-72
2022/01/26 10:57:05;;;;;;;23.47;21.63;;;;;;;;;;5093196;28;20556;-72
2022/01/26 10:59:35;;;;;;;23.73;21.50;;;;;;;;;;5093029;28;20232;-73
2022/01/26 11:02:02;;;;;;;18.47;17.37;;;;;;;;;;5093122;28;20201;-72
2022/01/26 11:04:29;;;;;;;20.63;19.13;;;;;;;;;;5093394;28;20236;-73
2022/01/26 11:06:57;;;;;;;20.23;18.77;;;;;;;;;;5094109;28;20221;-72
2022/01/26 11:09:25;;;;;;;16.93;15.93;;;;;;;;;;5093287;28;20228;-72
2022/01/26 11:11:59;;;;;;;18.33;17.20;;;;;;;;;;5092425;28;20564;-72
2022/01/26 11:14:26;;;;;;;19.00;17.90;;;;;;;;;;5092950;28;20620;-73
2022/01/26 11:17:01;;;;;;;21.47;19.83;;;;;;;;;;5093926;28;20201;-74
2022/01/26 11:19:28;;;;;;;20.77;19.57;;;;;;;;;;5093155;28;20213;-73
2022/01/26 11:22:06;;;;;;;21.50;20.10;;;;;;;;;;5092765;28;20194;-73
2022/01/26 11:24:42;;;;;;;22.20;20.50;;;;;;;;;;5093032;28;20236;-73
2022/01/26 11:27:09;;;;;;;18.77;17.67;;;;;;;;;;5093131;28;20224;-73
2022/01/26 11:29:38;;;;;;;18.77;17.67;;;;;;;;;;5092979;28;20267;-73
2022/01/26 11:32:10;;;;;;;22.27;20.70;;;;;;;;;;5093230;28;20334;-73
2022/01/26 11:34:37;;;;;;;25.60;23.20;;;;;;;;;;5093007;28;20712;-73
2022/01/26 11:37:05;;;;;;;19.70;18.40;;;;;;;;;;5092793;28;20293;-72
2022/01/26 11:45:01;;;;;;;21.63;19.87;;;;;;;;;;5093379;28;20247;-73
2022/01/26 11:45:13;;;;;;;23.63;21.50;;;;;;;;;;5092691;28;20557;-73
2022/01/26 11:47:42;;;;;;;21.00;19.60;;;;;;;;;;5092389;28;20209;-73
2022/01/26 11:50:10;;;;;;;20.07;18.60;;;;;;;;;;5092624;28;20277;-72
2022/01/26 11:52:38;;;;;;;20.13;18.77;;;;;;;;;;5092322;28;20285;-73
2022/01/26 11:55:09;;;;;;;23.50;22.03;;;;;;;;;;5092309;28;20675;-73
2022/01/26 11:57:42;;;;;;;21.60;20.10;;;;;;;;;;5092292;28;20249;-73
2022/01/26 12:00:13;;;;;;;26.13;23.67;;;;;;;;;;5092232;28;20229;-73
2022/01/26 12:02:51;;;;;;;27.67;25.53;;;;;;;;;;5092755;28;20201;-73
2022/01/26 12:05:21;;;;;;;20.00;19.00;;;;;;;;;;5092473;28;20610;-73
2022/01/26 12:07:48;;;;;;;25.27;23.33;;;;;;;;;;5092149;28;20190;-73
2022/01/26 12:10:24;;;;;;;25.60;23.90;;;;;;;;;;5092095;28;20618;-73
2022/01/26 12:12:58;;;;;;;21.27;19.90;;;;;;;;;;5092148;28;20735;-73
2022/01/26 12:15:27;;;;;;;19.60;18.70;;;;;;;;;;5092066;28;20190;-73
2022/01/26 12:18:11;;;;;;;18.03;17.17;;;;;;;;;;5092544;28;20711;-72
2022/01/26 12:32:11;;;;;;;21.87;20.17;;;;;;;;;;5096766;28;20687;-72
2022/01/26 12:34:45;;;;;;;23.93;21.83;;;;;;;;;;5096001;28;20606;-72
2022/01/26 12:37:18;;;;;;;27.90;24.73;;;;;;;;;;5095924;28;20190;-72
2022/01/26 12:42:59;;;;;;;19.40;18.40;;;;;;;;;;5096426;28;20692;-72
2022/01/26 12:45:26;;;;;;;23.17;21.63;;;;;;;;;;5095869;28;20613;-72
2022/01/26 12:47:54;;;;;;;23.87;21.57;;;;;;;;;;5095999;28;20198;-72
2022/01/26 12:50:23;;;;;;;23.50;21.77;;;;;;;;;;5095733;28;20255;-72
2022/01/26 12:52:51;;;;;;;23.70;21.83;;;;;;;;;;5095966;28;20225;-72
2022/01/26 12:55:21;;;;;;;21.63;19.37;;;;;;;;;;5095923;28;20225;-72
2022/01/26 12:57:48;;;;;;;21.73;20.33;;;;;;;;;;5095817;28;20307;-72
2022/01/26 13:00:15;;;;;;;22.60;20.77;;;;;;;;;;5095574;28;20283;-72
2022/01/26 13:02:42;;;;;;;23.17;21.33;;;;;;;;;;5095809;28;20247;-72
2022/01/26 13:05:09;;;;;;;22.70;20.67;;;;;;;;;;5095750;28;20280;-72
2022/01/26 13:07:38;;;;;;;22.17;20.60;;;;;;;;;;5095390;28;20727;-72
2022/01/26 13:10:13;;;;;;;20.13;18.87;;;;;;;;;;5095715;28;20247;-72
2022/01/26 13:12:40;;;;;;;22.03;20.60;;;;;;;;;;5095673;28;20221;-72
2022/01/26 13:15:14;;;;;;;23.30;21.40;;;;;;;;;;5095316;28;20254;-72
2022/01/26 13:17:48;;;;;;;21.43;20.07;;;;;;;;;;5095242;28;20197;-72
2022/01/26 13:20:27;;;;;;;20.17;19.17;;;;;;;;;;5095277;28;20189;-72
2022/01/26 13:23:06;;;;;;;23.07;21.07;;;;;;;;;;5095380;28;20250;-72
2022/01/26 13:25:46;;;;;;;21.93;20.60;;;;;;;;;;5095190;28;20190;-72
2022/01/26 13:28:32;;;;;;;21.83;20.53;;;;;;;;;;5095386;28;20186;-72
2022/01/26 13:36:48;;;;;;;21.30;20.00;;;;;;;;;;5095491;28;20182;-72
2022/01/26 13:39:31;;;;;;;23.93;22.23;;;;;;;;;;5094907;28;20225;-71
2022/01/26 13:42:25;;;;;;;22.53;20.47;;;;;;;;;;5095371;28;20189;-72
2022/01/26 13:50:26;;;;;;;22.23;20.37;;;;;;;;;;5050351;28;20204;-72
2022/01/26 13:52:58;;;;;;;19.53;18.33;;;;;;;;;;5095261;28;20549;-72
2022/01/26 13:55:46;;;;;;;20.27;19.07;;;;;;;;;;5094759;28;20223;-72
2022/01/26 13:58:38;;;;;;;22.33;21.00;;;;;;;;;;5094442;28;20220;-72
2022/01/26 14:01:15;;;;;;;21.57;20.30;;;;;;;;;;5094303;28;20232;-72
2022/01/26 14:03:43;;;;;;;21.70;20.30;;;;;;;;;;5094622;28;20190;-72
2022/01/26 14:06:10;;;;;;;23.63;21.53;;;;;;;;;;5094642;28;20570;-72
2022/01/26 14:08:37;;;;;;;19.80;18.50;;;;;;;;;;5094648;28;20193;-72
2022/01/26 14:11:05;;;;;;;21.27;19.97;;;;;;;;;;5094574;28;20244;-72
2022/01/26 14:13:34;;;;;;;21.63;20.33;;;;;;;;;;5094127;28;20229;-72
2022/01/26 14:16:01;;;;;;;21.07;19.67;;;;;;;;;;5094448;28;20668;-72
2022/01/26 14:21:43;;;;;;;17.87;16.87;;;;;;;;;;5093992;28;20263;-72
2022/01/26 14:26:55;;;;;;;16.60;15.70;;;;;;;;;;5093822;28;20201;-72
2022/01/26 14:29:32;;;;;;;19.00;17.47;;;;;;;;;;5093893;28;20189;-72
2022/01/26 14:32:15;;;;;;;23.57;21.40;;;;;;;;;;5094203;28;20247;-72
2022/01/26 14:35:05;;;;;;;17.70;16.70;;;;;;;;;;5093709;28;20186;-72
2022/01/26 14:40:43;;;;;;;19.37;18.17;;;;;;;;;;5093972;28;20182;-72
2022/01/26 14:52:03;;;;;;;18.63;17.73;;;;;;;;;;5093575;28;20203;-72
2022/01/26 14:54:48;;;;;;;22.33;21.30;;;;;;;;;;5093766;28;20217;-72
2022/01/26 15:00:18;;;;;;;17.63;16.83;;;;;;;;;;5093080;28;20291;-72
2022/01/26 15:31:08;;;;;;;20.13;19.23;;;;;;;;;;5092547;28;20202;-72
2022/01/26 15:33:40;;;;;;;19.93;19.03;;;;;;;;;;5092494;28;20200;-72
2022/01/26 15:42:17;;;;;;;17.77;16.97;;;;;;;;;;5093094;28;20188;-72
2022/01/26 15:45:01;;;;;;;18.13;17.33;;;;;;;;;;5092299;28;20644;-72
2022/01/26 15:50:24;;;;;;;19.33;18.37;;;;;;;;;;5093089;28;20185;-72
2022/01/26 15:52:58;;;;;;;19.27;18.07;;;;;;;;;;5092491;28;20223;-72
2022/01/26 15:58:22;;;;;;;17.67;16.77;;;;;;;;;;5092633;28;20248;-72
2022/01/26 16:06:24;;;;;;;17.63;16.83;;;;;;;;;;5092541;28;20274;-72
2022/01/26 16:17:23;;;;;;;18.13;17.30;;;;;;;;;;5092181;28;20189;-72
2022/01/26 17:21:16;;;;;;;18.90;18.10;;;;;;;;;;5095479;28;20264;-72
2022/01/26 17:46:59;;;;;;;17.00;16.27;;;;;;;;;;5094757;28;20182;-73
2022/01/26 17:55:20;;;;;;;17.13;16.43;;;;;;;;;;5094591;28;20231;-73
2022/01/26 18:17:19;;;;;;;20.93;19.50;;;;;;;;;;5094208;28;20662;-73
2022/01/26 18:39:14;;;;;;;21.67;20.03;;;;;;;;;;5094494;28;20256;-73
2022/01/26 18:49:49;;;;;;;18.00;17.20;;;;;;;;;;5049169;28;20284;-73
2022/01/26 18:52:17;;;;;;;18.30;17.50;;;;;;;;;;5093740;28;20232;-73
2022/01/26 18:54:43;;;;;;;21.17;19.77;;;;;;;;;;5093715;28;20252;-73
2022/01/26 18:57:11;;;;;;;42.00;24.00;;;;;;;;;;5093652;28;20233;-73
2022/01/26 18:59:38;;;;;;;18.93;18.03;;;;;;;;;;5093124;28;20778;-73
2022/01/26 19:02:05;;;;;;;22.53;21.00;;;;;;;;;;5093200;28;20197;-73
2022/01/26 19:04:36;;;;;;;20.03;18.93;;;;;;;;;;5093247;28;20262;-73
2022/01/26 19:07:03;;;;;;;17.93;17.13;;;;;;;;;;5093493;28;20193;-73
2022/01/26 19:09:35;;;;;;;19.03;18.23;;;;;;;;;;5093485;28;20190;-73
2022/01/26 19:12:05;;;;;;;18.70;17.90;;;;;;;;;;5093439;28;20186;-73
2022/01/26 19:14:36;;;;;;;19.33;18.47;;;;;;;;;;5093023;28;20194;-73
2022/01/26 19:17:07;;;;;;;18.77;17.97;;;;;;;;;;5093159;28;20254;-73
2022/01/26 19:19:40;;;;;;;20.40;19.40;;;;;;;;;;5093348;28;20305;-73
2022/01/26 19:22:32;;;;;;;19.73;18.83;;;;;;;;;;5093254;28;20218;-73
2022/01/26 19:25:05;;;;;;;21.30;19.90;;;;;;;;;;5092900;28;20196;-73
2022/01/26 19:27:37;;;;;;;20.13;19.23;;;;;;;;;;5092857;28;20625;-73
2022/01/26 19:33:17;;;;;;;19.47;18.67;;;;;;;;;;5092385;28;20209;-73
2022/01/26 19:44:30;;;;;;;19.80;18.93;;;;;;;;;;5092812;28;20185;-73
2022/01/26 19:47:17;;;;;;;20.30;19.40;;;;;;;;;;5092517;28;20213;-73
2022/01/26 19:52:29;;;;;;;21.17;20.07;;;;;;;;;;5093281;28;20220;-73
2022/01/26 19:54:56;;;;;;;20.30;19.40;;;;;;;;;;5092634;28;20193;-73
2022/01/26 19:57:24;;;;;;;18.87;18.07;;;;;;;;;;5092367;28;20196;-73
2022/01/26 19:59:51;;;;;;;19.00;18.20;;;;;;;;;;5092211;28;20237;-73
2022/01/26 20:02:18;;;;;;;20.93;19.83;;;;;;;;;;5092396;28;20262;-73